createdAt,value
2023-02-17T00:00:39.145Z,16.70
2023-02-17T00:03:05.726Z,15.68
2023-02-17T00:05:32.408Z,16.08
2023-02-17T00:07:58.981Z,17.17
2023-02-17T00:10:25.540Z,16.23
2023-02-17T00:12:52.199Z,18.08
2023-02-17T00:15:19.159Z,15.45
2023-02-17T00:17:45.784Z,17.25
2023-02-17T00:20:12.618Z,18.33
2023-02-17T00:22:39.303Z,18.08
2023-02-17T00:25:06.635Z,17.60
2023-02-17T00:27:33.230Z,17.90
2023-02-17T00:30:02.497Z,16.00
2023-02-17T00:32:29.248Z,16.88
2023-02-17T00:34:58.283Z,19.77
2023-02-17T00:37:25.651Z,20.10
2023-02-17T00:39:52.284Z,18.70
2023-02-17T00:42:19.235Z,20.00
2023-02-17T00:44:45.930Z,19.70
2023-02-17T00:47:13.391Z,18.23
2023-02-17T00:49:40.851Z,23.30
2023-02-17T00:52:07.602Z,22.63
2023-02-17T00:54:34.211Z,19.73
2023-02-17T00:57:00.803Z,21.42
2023-02-17T00:59:27.489Z,20.55
2023-02-17T01:01:54.360Z,19.75
2023-02-17T01:04:21.361Z,19.20
2023-02-17T01:06:48.033Z,22.27
2023-02-17T01:09:14.986Z,22.30
2023-02-17T01:11:42.445Z,20.38
2023-02-17T01:14:12.692Z,22.00
2023-02-17T01:16:41.797Z,19.30
2023-02-17T01:19:11.659Z,21.50
2023-02-17T01:21:38.481Z,22.02
2023-02-17T01:24:07.179Z,22.23
2023-02-17T01:26:36.710Z,20.98
2023-02-17T01:29:05.193Z,22.40
2023-02-17T01:31:32.427Z,24.17
2023-02-17T01:34:02.671Z,25.15
2023-02-17T01:36:29.826Z,22.70
2023-02-17T01:38:56.794Z,22.48
2023-02-17T01:41:29.275Z,24.20
2023-02-17T01:44:22.921Z,22.42
2023-02-17T01:46:51.486Z,20.88
2023-02-17T01:49:33.240Z,24.35
2023-02-17T01:52:18.244Z,23.10
2023-02-17T01:54:50.260Z,24.92
2023-02-17T01:57:19.500Z,23.55
2023-02-17T01:59:46.578Z,26.48
2023-02-17T02:02:14.207Z,26.90
2023-02-17T02:04:46.416Z,26.02
2023-02-17T02:07:23.716Z,25.25
2023-02-17T02:09:56.141Z,26.92
2023-02-17T02:12:28.796Z,28.88
2023-02-17T02:15:00.166Z,28.73
2023-02-17T02:17:51.706Z,29.10
2023-02-17T02:20:30.216Z,29.10
2023-02-17T02:23:20.874Z,30.90
2023-02-17T02:26:25.250Z,29.10
2023-02-17T02:29:28.324Z,32.20
2023-02-17T02:32:23.931Z,32.38
2023-02-17T02:34:59.902Z,32.10
2023-02-17T02:37:41.412Z,35.28
2023-02-17T02:40:11.256Z,33.00
2023-02-17T02:42:39.252Z,34.65
2023-02-17T02:45:10.588Z,35.15
2023-02-17T02:47:47.943Z,34.83
2023-02-17T02:50:28.398Z,37.35
2023-02-17T02:53:39.264Z,35.58
2023-02-17T02:56:28.518Z,37.85
2023-02-17T02:59:29.207Z,35.55
2023-02-17T03:02:12.228Z,40.25
2023-02-17T03:04:47.688Z,37.33
2023-02-17T03:07:37.553Z,39.85
2023-02-17T03:10:05.709Z,35.17
2023-02-17T03:12:36.400Z,38.80
2023-02-17T03:15:28.670Z,42.05
2023-02-17T03:18:00.053Z,41.40
2023-02-17T03:20:30.606Z,42.88
2023-02-17T03:22:57.540Z,43.28
2023-02-17T03:25:24.465Z,41.20
2023-02-17T03:27:51.161Z,42.88
2023-02-17T03:30:18.048Z,42.42
2023-02-17T03:32:44.851Z,41.42
2023-02-17T03:35:11.489Z,43.63
2023-02-17T03:37:38.386Z,44.60
2023-02-17T03:40:07.331Z,44.45
2023-02-17T03:42:34.068Z,39.53
2023-02-17T03:45:00.648Z,40.40
2023-02-17T03:47:27.488Z,36.05
2023-02-17T03:49:54.097Z,42.10
2023-02-17T03:52:20.879Z,38.53
2023-02-17T03:54:47.570Z,38.17
2023-02-17T03:57:14.666Z,34.58
2023-02-17T03:59:41.243Z,35.35
2023-02-17T04:02:07.829Z,34.85
2023-02-17T04:04:36.090Z,35.28
2023-02-17T04:07:02.737Z,36.88
2023-02-17T04:09:29.336Z,34.15
2023-02-17T04:11:55.945Z,34.13
2023-02-17T04:14:22.584Z,27.73
2023-02-17T04:16:49.221Z,30.88
2023-02-17T04:19:15.870Z,36.33
2023-02-17T04:21:42.509Z,35.35
2023-02-17T04:24:09.184Z,31.73
2023-02-17T04:26:35.864Z,34.63
2023-02-17T04:29:04.836Z,35.58
2023-02-17T04:31:32.805Z,35.17
2023-02-17T04:33:59.480Z,35.58
2023-02-17T04:36:26.185Z,33.80
2023-02-17T04:38:52.885Z,34.15
2023-02-17T04:41:20.101Z,37.40
2023-02-17T04:43:46.714Z,38.47
2023-02-17T04:46:13.476Z,36.70
2023-02-17T04:48:40.359Z,36.88
2023-02-17T04:51:07.071Z,35.80
2023-02-17T04:53:33.733Z,36.30
2023-02-17T04:56:00.863Z,36.92
2023-02-17T04:58:27.526Z,35.90
2023-02-17T05:00:54.152Z,35.15
2023-02-17T05:03:20.899Z,36.80
2023-02-17T05:05:47.509Z,33.42
2023-02-17T05:08:14.390Z,30.67
2023-02-17T05:10:41.666Z,30.90
2023-02-17T05:13:08.306Z,27.88
2023-02-17T05:15:35.288Z,30.25
2023-02-17T05:18:02.251Z,27.90
2023-02-17T05:20:28.988Z,27.92
2023-02-17T05:22:55.573Z,28.20
2023-02-17T05:25:22.232Z,25.83
2023-02-17T05:27:49.042Z,25.58
2023-02-17T05:30:16.658Z,21.17
2023-02-17T05:32:43.432Z,23.60
2023-02-17T05:35:10.238Z,23.70
2023-02-17T05:37:36.895Z,22.35
2023-02-17T05:40:03.798Z,22.38
2023-02-17T05:42:30.380Z,17.08
2023-02-17T05:44:57.032Z,21.42
2023-02-17T05:47:23.936Z,19.90
2023-02-17T05:49:50.741Z,21.13
2023-02-17T05:52:18.187Z,20.05
2023-02-17T05:54:45.332Z,20.92
2023-02-17T05:57:11.903Z,19.63
2023-02-17T05:59:38.589Z,21.10
2023-02-17T06:02:05.269Z,20.50
2023-02-17T06:04:33.343Z,19.92
2023-02-17T06:07:00.241Z,18.83
2023-02-17T06:09:26.952Z,19.80
2023-02-17T06:11:53.678Z,20.05
2023-02-17T06:14:20.325Z,19.63
2023-02-17T06:16:47.149Z,18.73
2023-02-17T06:19:13.815Z,21.17
2023-02-17T06:21:41.002Z,19.88
2023-02-17T06:24:07.767Z,19.38
2023-02-17T06:26:34.836Z,19.73
2023-02-17T06:29:01.447Z,21.75
2023-02-17T06:31:28.235Z,19.48
2023-02-17T06:33:54.890Z,19.60
2023-02-17T06:36:21.524Z,20.90
2023-02-17T06:38:48.112Z,21.08
2023-02-17T06:41:14.777Z,21.50
2023-02-17T06:43:41.615Z,22.40
2023-02-17T06:46:08.608Z,22.55
2023-02-17T06:48:35.795Z,22.40
2023-02-17T06:51:02.430Z,23.75
2023-02-17T06:53:29.038Z,22.58
2023-02-17T06:55:55.944Z,21.85
2023-02-17T06:58:22.646Z,22.58
2023-02-17T07:00:49.320Z,23.67
2023-02-17T07:03:15.926Z,23.95
2023-02-17T07:05:42.525Z,26.13
2023-02-17T07:08:09.195Z,22.65
2023-02-17T07:10:37.872Z,25.90
2023-02-17T07:13:04.584Z,24.55
2023-02-17T07:15:31.329Z,22.95
2023-02-17T07:17:58.371Z,23.45
2023-02-17T07:20:24.971Z,23.13
2023-02-17T07:22:51.569Z,22.80
2023-02-17T07:25:18.209Z,25.17
2023-02-17T07:27:44.850Z,22.30
2023-02-17T07:30:12.088Z,21.90
2023-02-17T07:32:39.238Z,23.92
2023-02-17T07:35:06.140Z,22.40
2023-02-17T07:37:34.102Z,22.70
2023-02-17T07:40:00.731Z,22.35
2023-02-17T07:42:28.215Z,23.98
2023-02-17T07:44:54.836Z,24.23
2023-02-17T07:47:21.448Z,22.55
2023-02-17T07:49:48.035Z,23.67
2023-02-17T07:52:17.860Z,24.60
2023-02-17T07:54:44.799Z,23.17
2023-02-17T07:57:11.395Z,22.75
2023-02-17T07:59:38.005Z,21.65
2023-02-17T08:02:04.713Z,23.50
2023-02-17T08:04:32.776Z,25.15
2023-02-17T08:06:59.435Z,24.05
2023-02-17T08:09:44.751Z,21.23
2023-02-17T08:12:38.282Z,22.75
2023-02-17T08:15:07.491Z,23.08
2023-02-17T08:17:34.239Z,23.25
2023-02-17T08:20:07.933Z,22.55
2023-02-17T08:22:35.699Z,22.40
2023-02-17T08:25:02.424Z,20.33
2023-02-17T08:27:29.031Z,24.08
2023-02-17T08:29:55.980Z,22.58
2023-02-17T08:32:23.353Z,21.50
2023-02-17T08:34:50.175Z,21.23
2023-02-17T08:37:16.900Z,23.17
2023-02-17T08:39:43.865Z,23.50
2023-02-17T08:42:11.966Z,19.17
2023-02-17T08:44:38.937Z,23.85
2023-02-17T08:47:06.724Z,22.35
2023-02-17T08:49:33.673Z,24.55
2023-02-17T08:52:00.828Z,22.48
2023-02-17T08:54:28.283Z,22.00
2023-02-17T08:56:54.991Z,21.90
2023-02-17T08:59:21.912Z,21.35
2023-02-17T09:01:48.715Z,19.70
2023-02-17T09:04:18.590Z,20.05
2023-02-17T09:06:50.666Z,17.70
2023-02-17T09:09:22.670Z,19.38
2023-02-17T09:11:49.490Z,17.10
2023-02-17T09:14:16.250Z,16.98
2023-02-17T09:16:43.133Z,17.75
2023-02-17T09:19:09.877Z,17.17
2023-02-17T09:21:36.562Z,16.02
2023-02-17T09:24:03.539Z,17.67
2023-02-17T09:26:30.191Z,18.52
2023-02-17T09:28:57.783Z,16.13
2023-02-17T09:31:27.037Z,15.50
2023-02-17T09:33:54.957Z,15.90
2023-02-17T09:36:28.029Z,16.52
2023-02-17T09:38:55.748Z,17.10
2023-02-17T09:41:37.926Z,15.70
2023-02-17T09:44:07.424Z,15.00
2023-02-17T09:46:59.368Z,14.98
2023-02-17T09:49:32.468Z,14.73
2023-02-17T09:52:15.207Z,16.67
2023-02-17T09:54:59.477Z,16.33
2023-02-17T09:57:29.243Z,15.60
2023-02-17T10:00:02.360Z,15.85
2023-02-17T10:02:50.409Z,18.02
2023-02-17T10:05:21.605Z,15.75
2023-02-17T10:07:54.433Z,15.88
2023-02-17T10:10:27.911Z,15.85
2023-02-17T10:13:02.017Z,15.00
2023-02-17T10:15:35.384Z,16.73
2023-02-17T10:18:11.577Z,16.05
2023-02-17T10:20:49.814Z,17.58
2023-02-17T10:23:18.523Z,19.00
2023-02-17T10:26:05.946Z,18.40
2023-02-17T10:28:53.541Z,19.98
2023-02-17T10:31:56.570Z,21.13
2023-02-17T10:34:36.746Z,20.65
2023-02-17T10:37:24.905Z,23.23
2023-02-17T10:39:54.660Z,21.70
2023-02-17T10:42:30.803Z,21.33
2023-02-17T10:45:10.504Z,21.92
2023-02-17T10:47:39.776Z,20.35
2023-02-17T10:50:23.379Z,22.77
2023-02-17T10:52:50.989Z,21.83
2023-02-17T10:55:33.743Z,21.40
2023-02-17T10:58:13.055Z,20.40
2023-02-17T11:00:42.284Z,22.30
2023-02-17T11:03:20.433Z,22.17
2023-02-17T11:05:57.689Z,20.63
2023-02-17T11:08:31.555Z,22.65
2023-02-17T11:11:04.596Z,19.85
2023-02-17T11:13:40.049Z,19.20
2023-02-17T11:16:19.987Z,20.08
2023-02-17T11:18:49.561Z,20.85
2023-02-17T11:21:16.433Z,18.75
2023-02-17T11:23:56.332Z,18.90
2023-02-17T11:26:25.634Z,20.00
2023-02-17T11:28:52.362Z,17.67
2023-02-17T11:31:27.768Z,18.42
2023-02-17T11:33:56.978Z,18.17
2023-02-17T11:36:27.470Z,17.08
2023-02-17T11:38:54.534Z,16.58
2023-02-17T11:41:21.293Z,18.63
2023-02-17T11:43:58.545Z,15.35
2023-02-17T11:46:41.118Z,17.25
2023-02-17T11:49:36.960Z,15.77
2023-02-17T11:52:19.387Z,15.35
2023-02-17T11:55:12.925Z,14.98
2023-02-17T11:57:45.657Z,15.80
2023-02-17T12:00:15.069Z,15.88
2023-02-17T12:03:17.329Z,17.05
2023-02-17T12:06:11.353Z,16.05
2023-02-17T12:09:07.786Z,17.63
2023-02-17T12:11:55.640Z,18.50
2023-02-17T12:14:37.334Z,17.15
2023-02-17T12:17:35.383Z,19.25
2023-02-17T12:20:38.125Z,17.83
2023-02-17T12:23:29.638Z,18.15
2023-02-17T12:26:11.117Z,17.77
2023-02-17T12:28:52.883Z,17.90
2023-02-17T12:31:19.577Z,18.80
2023-02-17T12:34:01.414Z,18.08
2023-02-17T12:36:33.425Z,18.85
2023-02-17T12:39:18.165Z,18.95
2023-02-17T12:42:03.282Z,19.15
2023-02-17T12:44:34.232Z,19.13
2023-02-17T12:47:15.921Z,20.65
2023-02-17T12:49:48.988Z,21.55
2023-02-17T12:52:27.208Z,20.92
2023-02-17T12:55:19.852Z,18.27
2023-02-17T12:58:04.008Z,19.45
2023-02-17T13:00:38.370Z,20.48
2023-02-17T13:03:05.389Z,19.40
2023-02-17T13:06:01.208Z,19.15
2023-02-17T13:08:37.212Z,19.10
2023-02-17T13:11:08.230Z,19.50
2023-02-17T13:13:35.560Z,19.10
2023-02-17T13:16:14.178Z,17.88
2023-02-17T13:18:45.724Z,18.17
2023-02-17T13:21:32.937Z,17.02
2023-02-17T13:24:07.379Z,18.50
2023-02-17T13:26:52.421Z,18.35
2023-02-17T13:29:39.799Z,17.30
2023-02-17T13:32:33.237Z,17.00
2023-02-17T13:35:29.608Z,16.75
2023-02-17T13:37:56.304Z,16.73
2023-02-17T13:40:24.107Z,15.20
2023-02-17T13:42:55.843Z,14.73
2023-02-17T13:45:44.806Z,15.75
2023-02-17T13:48:15.642Z,16.05
2023-02-17T13:51:23.742Z,15.68
2023-02-17T13:53:50.883Z,15.23
2023-02-17T13:56:29.665Z,16.05
2023-02-17T13:59:18.143Z,16.50
2023-02-17T14:01:46.964Z,16.20
2023-02-17T14:04:27.191Z,15.55
2023-02-17T14:06:56.722Z,16.23
2023-02-17T14:09:27.763Z,16.55
2023-02-17T14:11:55.891Z,17.90
2023-02-17T14:14:27.675Z,20.60
2023-02-17T14:17:03.893Z,21.02
2023-02-17T14:19:45.323Z,19.58
2023-02-17T14:22:30.953Z,23.13
2023-02-17T14:25:06.872Z,24.88
2023-02-17T14:27:49.450Z,22.90
2023-02-17T14:30:39.311Z,23.67
2023-02-17T14:33:21.821Z,25.05
2023-02-17T14:36:00.605Z,24.95
2023-02-17T14:38:40.488Z,30.77
2023-02-17T14:41:11.435Z,30.25
2023-02-17T14:43:38.105Z,29.58
2023-02-17T14:46:05.448Z,28.60
2023-02-17T14:48:32.349Z,33.97
2023-02-17T14:50:59.069Z,32.65
2023-02-17T14:53:32.645Z,30.67
2023-02-17T14:56:21.893Z,34.92
2023-02-17T14:58:52.959Z,37.92
2023-02-17T15:01:21.538Z,34.30
2023-02-17T15:03:48.844Z,30.65
2023-02-17T15:06:32.488Z,37.78
2023-02-17T15:09:00.984Z,29.70
2023-02-17T15:11:30.417Z,30.35
2023-02-17T15:13:57.315Z,27.77
2023-02-17T15:16:24.035Z,29.00
2023-02-17T15:18:50.909Z,27.05
2023-02-17T15:21:27.723Z,29.30
2023-02-17T15:23:55.882Z,25.35
2023-02-17T15:26:23.260Z,24.60
2023-02-17T15:28:50.493Z,26.42
2023-02-17T15:31:20.592Z,23.80
2023-02-17T15:33:58.811Z,22.05
2023-02-17T15:36:26.969Z,21.42
2023-02-17T15:38:54.465Z,19.05
2023-02-17T15:41:24.449Z,19.33
2023-02-17T15:43:52.290Z,19.52
2023-02-17T15:46:20.949Z,16.33
2023-02-17T15:48:49.770Z,18.88
2023-02-17T15:51:19.365Z,18.85
2023-02-17T15:53:47.210Z,19.63
2023-02-17T15:56:21.438Z,19.23
2023-02-17T15:58:49.446Z,19.55
2023-02-17T16:01:31.835Z,18.30
2023-02-17T16:03:59.333Z,21.63
2023-02-17T16:06:27.382Z,23.67
2023-02-17T16:08:54.764Z,23.92
2023-02-17T16:11:23.052Z,23.60
2023-02-17T16:13:50.289Z,23.25
2023-02-17T16:16:35.920Z,22.67
2023-02-17T16:19:02.666Z,20.63
2023-02-17T16:21:29.336Z,18.40
2023-02-17T16:23:59.615Z,20.30
2023-02-17T16:26:34.387Z,16.27
2023-02-17T16:29:03.483Z,16.92
2023-02-17T16:31:33.477Z,19.45
2023-02-17T16:34:00.216Z,19.80
2023-02-17T16:36:31.351Z,19.50
2023-02-17T16:39:00.416Z,16.10
2023-02-17T16:41:27.054Z,16.60
2023-02-17T16:43:53.742Z,17.02
2023-02-17T16:46:29.556Z,19.17
2023-02-17T16:48:57.602Z,19.38
2023-02-17T16:51:24.545Z,17.75
2023-02-17T16:53:51.465Z,18.52
2023-02-17T16:56:25.901Z,17.80
2023-02-17T16:58:52.601Z,17.35
2023-02-17T17:01:19.288Z,17.85
2023-02-17T17:03:46.057Z,19.30
2023-02-17T17:06:19.462Z,20.77
2023-02-17T17:08:46.696Z,19.58
2023-02-17T17:11:15.956Z,22.73
2023-02-17T17:13:44.460Z,19.60
2023-02-17T17:16:35.593Z,19.55
2023-02-17T17:19:03.822Z,19.67
2023-02-17T17:21:30.911Z,20.67
2023-02-17T17:23:57.543Z,19.50
2023-02-17T17:26:41.229Z,18.75
2023-02-17T17:29:09.931Z,19.77
2023-02-17T17:31:36.782Z,18.15
2023-02-17T17:34:03.585Z,20.17
2023-02-17T17:36:37.528Z,19.67
2023-02-17T17:39:06.371Z,20.07
2023-02-17T17:41:33.713Z,21.63
2023-02-17T17:44:00.315Z,20.90
2023-02-17T17:46:30.483Z,21.23
2023-02-17T17:48:58.818Z,20.70
2023-02-17T17:51:27.662Z,19.27
2023-02-17T17:53:55.006Z,19.48
2023-02-17T17:56:27.573Z,19.77
2023-02-17T17:58:55.731Z,18.00
2023-02-17T18:01:23.043Z,19.75
2023-02-17T18:03:50.392Z,20.13
2023-02-17T18:06:40.538Z,21.50
2023-02-17T18:09:13.298Z,22.40
2023-02-17T18:11:44.409Z,21.73
2023-02-17T18:14:14.022Z,21.67
2023-02-17T18:16:44.282Z,21.02
2023-02-17T18:19:12.162Z,19.98
2023-02-17T18:21:39.745Z,22.27
2023-02-17T18:24:06.790Z,21.33
2023-02-17T18:26:33.829Z,23.80
2023-02-17T18:29:00.640Z,21.90
2023-02-17T18:31:29.486Z,23.23
2023-02-17T18:33:56.324Z,20.63
2023-02-17T18:36:26.207Z,22.55
2023-02-17T18:38:53.555Z,24.67
2023-02-17T18:41:31.431Z,20.05
2023-02-17T18:43:59.399Z,22.70
2023-02-17T18:46:27.179Z,24.95
2023-02-17T18:48:55.266Z,23.48
2023-02-17T18:51:23.376Z,25.63
2023-02-17T18:53:54.630Z,23.77
2023-02-17T18:56:24.750Z,22.20
2023-02-17T18:58:53.424Z,26.67
2023-02-17T19:01:26.181Z,27.83
2023-02-17T19:03:52.950Z,28.80
2023-02-17T19:06:22.357Z,32.67
2023-02-17T19:08:49.617Z,27.17
2023-02-17T19:11:18.376Z,33.55
2023-02-17T19:13:45.462Z,26.75
2023-02-17T19:16:15.722Z,26.55
2023-02-17T19:18:43.160Z,26.88
2023-02-17T19:21:10.363Z,27.98
2023-02-17T19:23:37.519Z,23.88
2023-02-17T19:26:06.876Z,23.90
2023-02-17T19:28:35.980Z,25.40
2023-02-17T19:31:06.322Z,25.55
2023-02-17T19:33:33.351Z,25.13
2023-02-17T19:35:59.987Z,24.25
2023-02-17T19:38:26.721Z,25.67
2023-02-17T19:40:53.423Z,29.25
2023-02-17T19:43:19.993Z,33.28
2023-02-17T19:45:46.702Z,33.13
2023-02-17T19:48:13.369Z,35.42
2023-02-17T19:50:40.080Z,16.52
2023-02-17T19:53:07.394Z,12.25
2023-02-17T19:55:34.362Z,8.70
2023-02-17T19:58:00.970Z,8.80
2023-02-17T20:00:27.665Z,9.13
2023-02-17T20:02:54.399Z,8.23
2023-02-17T20:05:21.108Z,7.95
2023-02-17T20:07:48.035Z,6.20
2023-02-17T20:10:14.772Z,5.72
2023-02-17T20:12:41.479Z,6.15
2023-02-17T20:15:08.787Z,5.85
2023-02-17T20:17:35.386Z,5.38
2023-02-17T20:20:02.068Z,4.70
2023-02-17T20:22:28.709Z,5.65
2023-02-17T20:24:55.403Z,6.70
2023-02-17T20:27:22.034Z,5.50
2023-02-17T20:29:48.947Z,7.00
2023-02-17T20:32:15.763Z,6.03
2023-02-17T20:34:42.504Z,6.55
2023-02-17T20:37:10.244Z,7.07
2023-02-17T20:39:38.559Z,7.32
2023-02-17T20:42:05.644Z,6.57
2023-02-17T20:44:32.390Z,7.28
2023-02-17T20:46:59.311Z,8.02
2023-02-17T20:49:26.486Z,7.82
2023-02-17T20:51:53.682Z,8.05
2023-02-17T20:54:20.347Z,7.80
2023-02-17T20:56:47.748Z,7.43
2023-02-17T20:59:14.532Z,7.07
2023-02-17T21:01:41.822Z,7.15
2023-02-17T21:04:09.020Z,6.63
2023-02-17T21:06:40.876Z,7.40
2023-02-17T21:09:14.556Z,7.35
2023-02-17T21:11:41.767Z,7.53
2023-02-17T21:14:08.640Z,6.60
2023-02-17T21:16:35.640Z,7.85
2023-02-17T21:19:02.951Z,6.57
2023-02-17T21:21:30.760Z,7.32
2023-02-17T21:23:58.251Z,8.13
2023-02-17T21:26:25.280Z,7.97
2023-02-17T21:28:52.058Z,6.72
2023-02-17T21:31:19.071Z,6.47
2023-02-17T21:33:46.020Z,7.75
2023-02-17T21:36:15.221Z,7.22
2023-02-17T21:38:42.294Z,7.88
2023-02-17T21:41:15.177Z,7.70
2023-02-17T21:44:00.846Z,6.28
2023-02-17T21:46:28.304Z,7.32
2023-02-17T21:48:55.952Z,7.00
2023-02-17T21:51:22.938Z,6.50
2023-02-17T21:53:49.940Z,6.03
2023-02-17T21:56:16.729Z,5.93
2023-02-17T21:58:48.624Z,5.93
2023-02-17T22:01:16.139Z,7.55
2023-02-17T22:03:42.986Z,5.63
2023-02-17T22:06:21.170Z,7.25
2023-02-17T22:08:48.069Z,6.80
2023-02-17T22:11:16.789Z,6.78
2023-02-17T22:13:43.552Z,5.93
2023-02-17T22:16:10.728Z,6.75
2023-02-17T22:18:37.648Z,7.45
2023-02-17T22:21:08.709Z,8.65
2023-02-17T22:23:35.471Z,8.02
2023-02-17T22:26:09.624Z,8.43
2023-02-17T22:28:36.643Z,6.32
2023-02-17T22:31:04.202Z,7.30
2023-02-17T22:33:30.948Z,7.75
2023-02-17T22:36:00.508Z,6.95
2023-02-17T22:38:27.261Z,7.53
2023-02-17T22:40:54.050Z,7.88
2023-02-17T22:43:20.776Z,7.95
2023-02-17T22:45:47.433Z,7.28
2023-02-17T22:48:14.067Z,7.22
2023-02-17T22:50:41.800Z,8.82
2023-02-17T22:53:08.669Z,8.15
2023-02-17T22:55:35.714Z,8.10
2023-02-17T22:58:02.337Z,7.65
2023-02-17T23:00:28.949Z,7.93
2023-02-17T23:02:55.625Z,7.90
2023-02-17T23:05:22.316Z,8.15
2023-02-17T23:07:52.501Z,8.88
2023-02-17T23:10:20.397Z,7.95
2023-02-17T23:12:47.136Z,7.50
2023-02-17T23:15:13.815Z,8.15
2023-02-17T23:17:58.612Z,7.28
2023-02-17T23:20:25.441Z,7.50
2023-02-17T23:22:52.089Z,7.53
2023-02-17T23:25:18.687Z,6.65
2023-02-17T23:27:45.330Z,7.60
2023-02-17T23:30:19.713Z,8.13
2023-02-17T23:32:46.376Z,7.70
2023-02-17T23:35:13.397Z,9.40
2023-02-17T23:37:40.255Z,8.55
2023-02-17T23:40:08.232Z,8.70
2023-02-17T23:42:34.855Z,10.70
2023-02-17T23:45:01.586Z,10.70
2023-02-17T23:47:28.380Z,11.77
2023-02-17T23:49:54.997Z,11.57
2023-02-17T23:52:21.773Z,12.23
2023-02-17T23:54:48.437Z,14.05
2023-02-17T23:57:15.332Z,14.48
2023-02-17T23:59:42.088Z,18.10
